Time;durP1;ratioP1;P1;durP2;ratioP2;P2;SDS_P1;SDS_P2;PMS_P1;PMS_P2;Temp;Humidity;BMP_temperature;BMP_pressure;BME280_temperature;BME280_humidity;BME280_pressure;Samples;Min_cycle;Max_cycle;Signal;HPM_P1;HPM_P2
2023/08/24 00:01:29;;;;;;;6.57;3.83;;;;;;;20.38;100.00;101749.22;5042734;28;20053;-66
2023/08/24 00:03:55;;;;;;;6.05;4.18;;;;;;;20.35;100.00;101747.78;5032965;28;20086;-66
2023/08/24 00:06:22;;;;;;;7.93;3.97;;;;;;;20.35;100.00;101744.31;5037411;28;20052;-66
2023/08/24 00:08:48;;;;;;;7.97;3.80;;;;;;;20.31;100.00;101757.16;5029794;28;20172;-66
2023/08/24 00:11:15;;;;;;;8.38;3.35;;;;;;;20.32;100.00;101752.66;5040021;28;20076;-65
2023/08/24 00:13:52;;;;;;;8.15;3.85;;;;;;;20.28;100.00;101746.06;5049474;28;20050;-65
2023/08/24 00:16:19;;;;;;;6.93;3.78;;;;;;;20.27;100.00;101747.91;5034572;28;20493;-65
2023/08/24 00:18:46;;;;;;;5.82;3.60;;;;;;;20.32;100.00;101742.00;5041774;28;20540;-66
2023/08/24 00:21:16;;;;;;;9.55;4.05;;;;;;;20.31;100.00;101751.84;5016153;28;20061;-66
2023/08/24 00:23:44;;;;;;;6.80;4.22;;;;;;;20.28;100.00;101741.53;5043206;28;20080;-65
2023/08/24 00:26:10;;;;;;;5.47;3.83;;;;;;;20.25;100.00;101747.28;5037316;28;20091;-65
2023/08/24 00:28:37;;;;;;;7.25;3.53;;;;;;;20.24;100.00;101742.13;5046708;28;20303;-65
2023/08/24 00:31:03;;;;;;;5.55;3.67;;;;;;;20.25;100.00;101736.59;5028055;28;20090;-65
2023/08/24 00:33:30;;;;;;;9.40;3.63;;;;;;;20.27;100.00;101737.25;5036748;28;20060;-65
2023/08/24 00:36:00;;;;;;;9.23;3.70;;;;;;;20.28;100.00;101730.06;5043239;28;20052;-65
2023/08/24 00:38:27;;;;;;;5.43;4.07;;;;;;;20.27;100.00;101715.13;5033871;28;20502;-65
2023/08/24 00:40:55;;;;;;;6.88;3.80;;;;;;;20.24;100.00;101718.16;5039215;28;20169;-65
2023/08/24 00:43:23;;;;;;;7.65;4.32;;;;;;;20.21;100.00;101722.03;5033711;28;20076;-65
2023/08/24 00:45:51;;;;;;;;;;;;;;;20.20;100.00;101724.88;5039319;28;20156;-65
2023/08/24 00:48:19;;;;;;;6.93;3.70;;;;;;;20.20;100.00;101736.34;5035353;28;20400;-65
2023/08/24 00:50:45;;;;;;;10.55;4.60;;;;;;;20.19;100.00;101745.34;5013201;28;20048;-65
2023/08/24 00:53:12;;;;;;;7.03;3.97;;;;;;;20.21;100.00;101742.47;5041957;28;20457;-65
2023/08/24 00:55:39;;;;;;;13.68;4.22;;;;;;;20.18;100.00;101740.22;5037085;28;20179;-66
2023/08/24 00:58:06;;;;;;;6.40;3.90;;;;;;;20.17;100.00;101738.53;5041574;28;20052;-65
2023/08/24 01:00:32;;;;;;;6.85;4.18;;;;;;;20.12;100.00;101737.28;5038315;28;20084;-65
2023/08/24 01:02:59;;;;;;;6.10;4.25;;;;;;;20.06;100.00;101731.88;5029724;28;20381;-65
2023/08/24 01:05:25;;;;;;;6.75;4.38;;;;;;;19.98;100.00;101738.13;5038452;28;20090;-65
2023/08/24 01:07:52;;;;;;;8.50;4.50;;;;;;;19.93;100.00;101732.53;5035141;28;20067;-65
2023/08/24 01:10:18;;;;;;;8.95;4.40;;;;;;;19.90;100.00;101720.44;5048632;28;20468;-65
2023/08/24 01:12:53;;;;;;;10.43;4.65;;;;;;;19.93;100.00;101724.56;5036437;28;20053;-65
2023/08/24 01:15:43;;;;;;;9.32;4.65;;;;;;;19.91;100.00;101729.22;5035748;28;20057;-65
2023/08/24 01:18:14;;;;;;;6.72;4.70;;;;;;;19.93;100.00;101730.72;5032591;28;20164;-65
2023/08/24 01:20:43;;;;;;;10.90;5.15;;;;;;;19.89;100.00;101721.44;5041738;28;20046;-65
2023/08/24 01:23:34;;;;;;;6.55;5.00;;;;;;;19.93;100.00;101724.56;5049274;28;20146;-65
2023/08/24 01:26:06;;;;;;;9.05;5.15;;;;;;;19.89;100.00;101721.44;5033758;28;20072;-65
2023/08/24 01:28:33;;;;;;;9.15;5.15;;;;;;;19.87;100.00;101718.13;5036700;28;20076;-65
2023/08/24 01:30:59;;;;;;;9.45;5.47;;;;;;;19.88;100.00;101724.31;5029558;28;20123;-66
2023/08/24 01:33:26;;;;;;;9.32;5.10;;;;;;;19.88;100.00;101726.97;5044318;28;20531;-65
2023/08/24 01:35:52;;;;;;;8.98;5.43;;;;;;;19.88;100.00;101724.31;5032735;28;20057;-65
2023/08/24 01:38:19;;;;;;;8.35;5.63;;;;;;;19.85;100.00;101704.19;5038264;28;20065;-65
2023/08/24 01:41:16;;;;;;;6.35;4.85;;;;;;;19.84;100.00;101707.06;5041837;28;20136;-66
2023/08/24 01:43:46;;;;;;;7.63;5.40;;;;;;;19.80;100.00;101703.09;5034737;28;20602;-65
2023/08/24 01:46:17;;;;;;;9.65;5.93;;;;;;;19.78;100.00;101713.09;5038137;28;20048;-65
2023/08/24 01:48:45;;;;;;;9.45;5.07;;;;;;;19.76;100.00;101713.31;5034686;28;20097;-65
2023/08/24 01:51:13;;;;;;;11.30;6.60;;;;;;;19.75;100.00;101701.81;5040805;28;20037;-65
2023/08/24 01:53:40;;;;;;;8.90;6.40;;;;;;;19.74;100.00;101699.34;5028902;28;20325;-66
2023/08/24 01:56:11;;;;;;;8.68;5.65;;;;;;;19.75;100.00;101709.78;5038910;28;20053;-65
2023/08/24 01:58:38;;;;;;;8.60;6.15;;;;;;;19.70;100.00;101706.84;5022417;28;20088;-66
2023/08/24 02:01:05;;;;;;;10.63;6.22;;;;;;;19.74;100.00;101708.16;5042324;28;20646;-65
2023/08/24 02:03:32;;;;;;;11.55;6.22;;;;;;;19.75;100.00;101704.47;5042972;28;20458;-65
2023/08/24 02:05:59;;;;;;;12.35;6.43;;;;;;;19.74;100.00;101696.69;5015992;28;20500;-65
2023/08/24 02:08:25;;;;;;;11.25;7.13;;;;;;;19.75;100.00;101709.78;5040789;28;20057;-66
2023/08/24 02:10:52;;;;;;;8.18;6.38;;;;;;;19.74;100.00;101715.31;5027069;28;20053;-64
2023/08/24 02:13:18;;;;;;;10.70;6.47;;;;;;;19.78;100.00;101724.59;5034775;28;20136;-66
2023/08/24 02:15:45;;;;;;;13.20;6.40;;;;;;;19.78;100.00;101731.72;5036714;28;20063;-65
2023/08/24 02:18:11;;;;;;;10.85;6.72;;;;;;;19.74;100.00;101720.66;5042142;28;20124;-65
2023/08/24 02:20:38;;;;;;;9.90;7.05;;;;;;;19.77;100.00;101738.91;5039765;28;20737;-66
2023/08/24 02:23:05;;;;;;;13.73;7.63;;;;;;;19.79;100.00;101733.38;5029150;28;20507;-65
2023/08/24 02:25:31;;;;;;;12.45;7.18;;;;;;;19.81;100.00;101726.03;5043750;28;20791;-65
2023/08/24 02:27:58;;;;;;;11.45;7.05;;;;;;;19.81;100.00;101724.19;5032172;28;20099;-65
2023/08/24 02:30:25;;;;;;;15.10;7.72;;;;;;;19.83;100.00;101708.88;5028177;28;20040;-65
2023/08/24 02:32:52;;;;;;;11.70;6.95;;;;;;;19.82;100.00;101701.91;5037117;28;20133;-65
2023/08/24 02:35:19;;;;;;;12.00;7.05;;;;;;;19.77;100.00;101706.13;5053876;28;20052;-66
2023/08/24 02:37:45;;;;;;;9.77;7.10;;;;;;;19.83;100.00;101718.69;5043684;28;20128;-65
2023/08/24 02:40:11;;;;;;;10.75;7.65;;;;;;;19.82;100.00;101709.88;5030276;28;20153;-65
2023/08/24 02:42:38;;;;;;;15.23;8.10;;;;;;;19.84;100.00;101715.84;5045801;28;20111;-65
2023/08/24 02:45:05;;;;;;;10.00;7.15;;;;;;;19.85;100.00;101711.34;5045201;28;20099;-64
2023/08/24 02:47:32;;;;;;;10.88;7.95;;;;;;;19.80;100.00;101706.59;5047407;28;20041;-65
2023/08/24 02:49:59;;;;;;;15.27;7.78;;;;;;;19.80;100.00;101692.44;5041189;28;20044;-66
2023/08/24 02:52:25;;;;;;;12.23;7.47;;;;;;;19.78;100.00;101684.66;5040948;28;20053;-66
2023/08/24 02:54:52;;;;;;;12.93;8.18;;;;;;;19.79;100.00;101682.81;5036872;28;20056;-65
2023/08/24 02:57:18;;;;;;;13.52;8.27;;;;;;;19.81;100.00;101676.28;5048027;28;20045;-64
2023/08/24 02:59:46;;;;;;;10.45;8.15;;;;;;;19.81;100.00;101672.81;5039597;28;20122;-65
2023/08/24 03:02:13;;;;;;;11.02;7.93;;;;;;;19.84;100.00;101683.09;5037807;28;20138;-65
2023/08/24 03:04:39;;;;;;;12.70;8.20;;;;;;;19.85;100.00;101682.06;5046090;28;20465;-65
2023/08/24 03:07:07;;;;;;;14.38;8.60;;;;;;;19.85;100.00;101671.41;5030687;28;20088;-65
2023/08/24 03:09:35;;;;;;;18.40;8.80;;;;;;;19.83;100.00;101663.59;5039125;28;20115;-65
2023/08/24 03:12:01;;;;;;;14.80;9.20;;;;;;;19.79;100.00;101648.22;5028284;28;20593;-64
2023/08/24 03:14:28;;;;;;;14.45;8.25;;;;;;;19.77;100.00;101645.72;5045479;28;20127;-63
2023/08/24 03:16:55;;;;;;;15.68;9.25;;;;;;;19.74;100.00;101638.94;5037674;28;20156;-64
2023/08/24 03:19:21;;;;;;;13.95;8.48;;;;;;;19.78;100.00;101619.91;5036295;28;20132;-64
2023/08/24 03:21:48;;;;;;;13.57;8.52;;;;;;;19.78;100.00;101617.25;5043741;28;20533;-63
2023/08/24 03:24:15;;;;;;;12.52;8.80;;;;;;;19.79;100.00;101608.28;5030596;28;20055;-63
2023/08/24 03:26:41;;;;;;;13.43;8.48;;;;;;;19.78;100.00;101602.13;5041717;28;20048;-64
2023/08/24 03:29:09;;;;;;;14.65;8.70;;;;;;;19.76;100.00;101598.84;5047094;28;21223;-63
2023/08/24 03:31:35;;;;;;;13.85;9.88;;;;;;;19.75;100.00;101597.19;5046852;28;20756;-63
2023/08/24 03:34:03;;;;;;;11.82;8.48;;;;;;;19.74;100.00;101595.53;5044763;28;20055;-63
2023/08/24 03:36:30;;;;;;;12.63;8.95;;;;;;;19.74;100.00;101600.88;5038056;28;20084;-63
2023/08/24 03:38:57;;;;;;;14.47;9.27;;;;;;;19.77;100.00;101611.13;5047790;28;20155;-65
2023/08/24 03:41:24;;;;;;;13.85;8.45;;;;;;;19.75;100.00;101599.84;5037420;28;20059;-64
2023/08/24 03:43:50;;;;;;;13.68;9.05;;;;;;;19.68;100.00;101602.41;5040923;28;20572;-64
2023/08/24 03:46:18;;;;;;;13.63;9.02;;;;;;;19.68;100.00;101601.56;5023504;28;20154;-64
2023/08/24 03:48:44;;;;;;;14.05;8.32;;;;;;;19.66;100.00;101592.94;5034078;28;20076;-64
2023/08/24 03:51:11;;;;;;;15.73;9.57;;;;;;;19.64;100.00;101593.16;5040117;28;20055;-64
2023/08/24 03:53:38;;;;;;;13.70;9.23;;;;;;;19.61;100.00;101593.50;5044341;28;20045;-63
2023/08/24 03:56:04;;;;;;;14.18;8.73;;;;;;;19.58;100.00;101591.22;5044019;28;20809;-63
2023/08/24 03:58:31;;;;;;;15.02;9.30;;;;;;;19.53;100.00;101594.44;5027917;28;20055;-64
2023/08/24 04:00:57;;;;;;;16.33;9.70;;;;;;;19.51;100.00;101603.63;5035032;28;20501;-64
2023/08/24 04:03:25;;;;;;;14.85;8.98;;;;;;;19.44;100.00;101589.41;5041170;28;20516;-64
2023/08/24 04:05:51;;;;;;;11.48;8.50;;;;;;;19.45;100.00;101589.25;5035844;28;20106;-66
2023/08/24 04:08:18;;;;;;;13.55;9.70;;;;;;;19.43;100.00;101575.31;5042317;28;20042;-64
2023/08/24 04:10:44;;;;;;;15.98;9.40;;;;;;;19.44;100.00;101576.94;5046831;28;20080;-64
2023/08/24 04:13:11;;;;;;;12.57;9.48;;;;;;;19.42;100.00;101573.63;5039637;28;20076;-64
2023/08/24 04:15:37;;;;;;;14.90;9.48;;;;;;;19.42;100.00;101580.81;5045460;28;20144;-65
2023/08/24 04:18:04;;;;;;;10.98;9.30;;;;;;;19.36;100.00;101575.19;5028335;28;20099;-64
2023/08/24 04:20:30;;;;;;;13.77;8.82;;;;;;;19.36;100.00;101567.22;5045957;28;20452;-64
2023/08/24 04:22:57;;;;;;;14.48;9.30;;;;;;;19.31;100.00;101561.66;5042243;28;20500;-63
2023/08/24 04:25:23;;;;;;;12.85;8.68;;;;;;;19.27;100.00;101555.06;5039803;28;20144;-64
2023/08/24 04:27:50;;;;;;;11.95;9.40;;;;;;;19.23;100.00;101550.28;5036378;28;20124;-63
2023/08/24 04:30:17;;;;;;;14.85;9.23;;;;;;;19.20;100.00;101559.47;5034375;28;20102;-63
2023/08/24 04:32:43;;;;;;;10.38;8.45;;;;;;;19.22;100.00;101543.31;5039323;28;20531;-65
2023/08/24 04:35:10;;;;;;;14.52;9.32;;;;;;;19.22;100.00;101545.97;5034219;28;20579;-64
2023/08/24 04:37:38;;;;;;;16.52;9.55;;;;;;;19.13;100.00;101540.78;5047612;28;20052;-65
2023/08/24 04:40:07;;;;;;;14.00;9.57;;;;;;;19.13;100.00;101548.75;5039451;28;20053;-63
2023/08/24 04:42:34;;;;;;;13.45;9.23;;;;;;;19.08;100.00;101558.28;5037676;28;20433;-64
2023/08/24 04:45:01;;;;;;;13.30;8.93;;;;;;;19.05;100.00;101556.84;5030745;28;20045;-64
2023/08/24 04:47:27;;;;;;;14.25;9.60;;;;;;;19.05;100.00;101556.84;5042379;28;20057;-64
2023/08/24 04:49:54;;;;;;;13.18;9.90;;;;;;;19.04;100.00;101551.69;5046665;28;20048;-63
2023/08/24 04:52:20;;;;;;;13.70;9.52;;;;;;;19.00;100.00;101548.56;5039637;28;20048;-64
2023/08/24 04:54:47;;;;;;;13.10;10.55;;;;;;;18.98;100.00;101552.44;5045045;28;20174;-63
2023/08/24 04:57:14;;;;;;;11.25;9.02;;;;;;;18.96;100.00;101547.28;5037570;28;20090;-63
2023/08/24 04:59:40;;;;;;;13.52;10.25;;;;;;;18.94;100.00;101552.78;5033680;28;20353;-65
2023/08/24 05:02:06;;;;;;;12.77;9.70;;;;;;;18.95;100.00;101557.13;5031163;28;20871;-64
2023/08/24 05:04:34;;;;;;;14.80;9.70;;;;;;;18.94;100.00;101551.97;5040821;28;20097;-64
2023/08/24 05:07:00;;;;;;;15.15;9.30;;;;;;;18.98;100.00;101553.25;5037801;28;20281;-65
2023/08/24 05:09:27;;;;;;;12.82;9.30;;;;;;;18.96;100.00;101553.44;5042166;28;20091;-65
2023/08/24 05:11:53;;;;;;;15.57;10.23;;;;;;;18.96;100.00;101558.75;5030098;28;20061;-64
2023/08/24 05:14:20;;;;;;;14.68;10.00;;;;;;;18.95;100.00;101566.91;5023764;28;20152;-64
2023/08/24 05:16:46;;;;;;;16.23;10.02;;;;;;;18.94;100.00;101558.09;5041754;28;20053;-64
2023/08/24 05:19:13;;;;;;;12.10;9.35;;;;;;;18.94;100.00;101571.41;5044079;28;20602;-64
2023/08/24 05:21:39;;;;;;;12.73;9.43;;;;;;;18.95;100.00;101559.78;5027643;28;20089;-64
2023/08/24 05:24:06;;;;;;;16.10;10.68;;;;;;;18.92;100.00;101552.16;5029376;28;20053;-64
2023/08/24 05:26:32;;;;;;;17.80;10.93;;;;;;;18.95;100.00;101548.28;5027211;28;20057;-64
2023/08/24 05:28:59;;;;;;;17.08;10.90;;;;;;;18.98;100.00;101553.25;5021761;28;20033;-64
2023/08/24 05:31:25;;;;;;;16.92;10.88;;;;;;;18.99;100.00;101562.03;5030791;28;20598;-64
2023/08/24 05:33:51;;;;;;;14.15;10.65;;;;;;;19.00;100.00;101566.38;5038205;28;20657;-64
2023/08/24 05:36:18;;;;;;;14.40;10.13;;;;;;;18.99;100.00;101572.69;5044751;28;20220;-64
2023/08/24 05:38:46;;;;;;;14.43;10.88;;;;;;;19.01;100.00;101570.66;5036630;28;20049;-64
2023/08/24 05:41:31;;;;;;;14.00;10.82;;;;;;;19.03;100.00;101568.66;5037337;28;20061;-64
2023/08/24 05:43:58;;;;;;;13.40;10.30;;;;;;;19.06;100.00;101561.13;5024570;28;20698;-65
2023/08/24 05:46:24;;;;;;;15.35;10.48;;;;;;;19.08;100.00;101559.09;5026734;28;20371;-64
2023/08/24 05:48:51;;;;;;;15.18;9.63;;;;;;;19.13;100.00;101550.56;5033371;28;20566;-64
2023/08/24 05:51:17;;;;;;;16.08;10.98;;;;;;;19.15;100.00;101553.88;5028690;28;20059;-64
2023/08/24 05:53:44;;;;;;;14.52;10.18;;;;;;;19.17;100.00;101543.91;5020752;28;20130;-65
2023/08/24 05:56:10;;;;;;;14.27;10.90;;;;;;;19.18;100.00;101548.19;5029346;28;20136;-64
2023/08/24 05:58:37;;;;;;;16.00;10.85;;;;;;;19.19;100.00;101551.66;5030344;28;20072;-64
2023/08/24 06:01:03;;;;;;;16.10;10.90;;;;;;;19.17;100.00;101551.88;5022777;28;20069;-64
2023/08/24 06:03:29;;;;;;;14.93;10.13;;;;;;;19.22;100.00;101557.44;5034893;28;20372;-63
2023/08/24 06:06:03;;;;;;;15.88;11.15;;;;;;;19.26;100.00;101542.75;5019922;28;20052;-64
2023/08/24 06:08:30;;;;;;;14.63;11.05;;;;;;;19.27;100.00;101531.13;5039237;28;20076;-64
2023/08/24 06:10:57;;;;;;;16.23;11.10;;;;;;;19.30;100.00;101529.91;5025606;28;20080;-64
2023/08/24 06:13:24;;;;;;;15.50;11.93;;;;;;;19.30;100.00;101527.25;5028804;28;20068;-65
2023/08/24 06:15:50;;;;;;;17.65;12.85;;;;;;;19.34;100.00;101517.88;5031477;28;20282;-64
2023/08/24 06:18:17;;;;;;;16.13;11.43;;;;;;;19.36;100.00;101506.03;5023068;28;20049;-64
2023/08/24 06:20:45;;;;;;;14.52;11.18;;;;;;;19.38;100.00;101497.06;5028978;28;20490;-65
2023/08/24 06:23:13;;;;;;;14.07;10.20;;;;;;;19.41;100.00;101494.84;5038685;28;20049;-64
2023/08/24 06:25:39;;;;;;;15.48;9.23;;;;;;;19.41;100.00;101489.53;5046467;28;20145;-64
2023/08/24 06:28:06;;;;;;;13.90;11.32;;;;;;;19.41;100.00;101473.56;5026002;28;20106;-64
2023/08/24 06:30:38;;;;;;;17.48;11.27;;;;;;;19.42;100.00;101477.03;5031404;28;20068;-65
2023/08/24 06:33:06;;;;;;;17.38;11.32;;;;;;;19.44;100.00;101477.69;5048586;28;20080;-65
2023/08/24 06:35:33;;;;;;;14.98;10.48;;;;;;;19.48;100.00;101478.94;5041674;28;20059;-64
2023/08/24 06:38:00;;;;;;;13.37;10.37;;;;;;;19.50;100.00;101480.44;5048136;28;20108;-64
2023/08/24 06:40:27;;;;;;;21.52;11.00;;;;;;;19.56;100.00;101482.31;5041737;28;20644;-64
2023/08/24 06:42:54;;;;;;;18.00;12.52;;;;;;;19.63;100.00;101478.91;5029427;28;20053;-66
2023/08/24 06:45:20;;;;;;;16.20;11.35;;;;;;;19.70;100.00;101487.78;5038425;28;20465;-64
2023/08/24 06:47:47;;;;;;;15.63;11.73;;;;;;;19.69;100.00;101486.94;5036116;28;20045;-64
2023/08/24 06:50:15;;;;;;;15.15;11.88;;;;;;;19.73;100.00;101488.22;5040942;28;20041;-65
2023/08/24 06:52:41;;;;;;;15.17;11.47;;;;;;;19.79;100.00;101491.16;5035264;28;20076;-65
2023/08/24 06:55:09;;;;;;;12.68;11.25;;;;;;;19.81;100.00;101491.78;5024111;28;20600;-64
2023/08/24 06:57:35;;;;;;;15.32;11.48;;;;;;;19.85;100.00;101485.88;5017976;28;20081;-64
2023/08/24 07:00:06;;;;;;;19.35;12.50;;;;;;;19.88;100.00;101477.53;5032887;28;20150;-65
2023/08/24 07:02:33;;;;;;;15.55;12.13;;;;;;;19.92;100.00;101480.63;5029378;28;20093;-65
2023/08/24 07:05:00;;;;;;;14.20;11.35;;;;;;;19.97;100.00;101477.38;5041005;28;20067;-64
2023/08/24 07:07:27;;;;;;;16.03;11.03;;;;;;;19.98;100.00;101471.06;5040190;28;20421;-65
2023/08/24 07:09:53;;;;;;;17.33;11.98;;;;;;;20.05;100.00;101480.75;5048064;28;20106;-66
2023/08/24 07:12:20;;;;;;;17.65;12.57;;;;;;;20.07;100.00;101475.19;5034889;28;20076;-65
2023/08/24 07:14:46;;;;;;;14.02;10.07;;;;;;;20.12;100.00;101470.94;5036037;28;20129;-65
2023/08/24 07:17:12;;;;;;;18.15;11.45;;;;;;;20.22;100.00;101475.13;5029443;28;20054;-65
2023/08/24 07:19:39;;;;;;;19.70;12.65;;;;;;;20.25;100.00;101464.09;5033520;28;20041;-65
2023/08/24 07:22:06;;;;;;;15.38;11.88;;;;;;;20.28;100.00;101455.69;5033782;28;20057;-66
2023/08/24 07:24:33;;;;;;;18.85;13.52;;;;;;;20.33;100.00;101455.94;5028979;28;20759;-63
2023/08/24 07:27:11;;;;;;;7.45;4.60;;;;;;;20.43;100.00;101463.56;5034847;28;20471;-63
2023/08/24 07:29:38;;;;;;;16.60;11.93;;;;;;;20.51;100.00;101460.75;5029091;28;20138;-64
2023/08/24 07:32:04;;;;;;;17.17;12.85;;;;;;;20.55;100.00;101457.47;5038326;28;20154;-64
2023/08/24 07:34:31;;;;;;;17.77;11.10;;;;;;;20.60;100.00;101461.44;5037562;28;20512;-63
2023/08/24 07:36:57;;;;;;;18.38;12.68;;;;;;;20.64;100.00;101463.53;5031597;28;20139;-63
2023/08/24 07:39:24;;;;;;;15.20;9.60;;;;;;;20.70;100.00;101454.72;5041347;28;20044;-65
2023/08/24 07:41:50;;;;;;;19.77;13.20;;;;;;;20.76;100.00;101453.13;5042631;28;20179;-64
2023/08/24 07:44:17;;;;;;;14.82;11.57;;;;;;;20.77;100.00;101452.06;5027209;28;20056;-64
2023/08/24 07:46:43;;;;;;;15.98;12.48;;;;;;;20.86;100.00;101456.22;5040259;28;20080;-63
2023/08/24 07:49:09;;;;;;;16.27;12.00;;;;;;;20.89;100.00;101445.16;5039339;28;20124;-64
2023/08/24 07:51:36;;;;;;;16.15;12.27;;;;;;;20.97;100.00;101451.34;5021104;28;21927;-63
2023/08/24 07:54:04;;;;;;;16.75;11.95;;;;;;;21.00;100.00;101459.75;5020639;28;20049;-63
2023/08/24 07:56:30;;;;;;;13.70;9.13;;;;;;;21.16;100.00;101447.09;5039170;28;20049;-62
2023/08/24 07:58:57;;;;;;;13.48;11.75;;;;;;;21.23;100.00;101456.75;5027885;28;20042;-63
2023/08/24 08:01:24;;;;;;;16.83;12.32;;;;;;;21.36;100.00;101460.47;5022713;28;20087;-63
2023/08/24 08:03:50;;;;;;;16.25;12.32;;;;;;;21.41;100.00;101453.50;5036368;28;20404;-63
2023/08/24 08:06:17;;;;;;;16.50;11.88;;;;;;;21.46;100.00;101450.25;5012001;28;20134;-63
2023/08/24 08:08:45;;;;;;;15.20;12.02;;;;;;;21.58;100.00;101453.13;5035284;28;20049;-63
2023/08/24 08:11:12;;;;;;;16.58;12.75;;;;;;;21.75;100.00;101456.25;5021914;28;20052;-63
2023/08/24 08:13:38;;;;;;;11.70;9.52;;;;;;;21.99;100.00;101450.25;5041321;28;20103;-63
2023/08/24 08:16:06;;;;;;;17.67;12.27;;;;;;;22.21;100.00;101455.38;5019090;28;20055;-64
2023/08/24 08:18:33;;;;;;;;;;;;;;;22.47;100.00;101467.91;5036353;28;20140;-64
2023/08/24 08:21:00;;;;;;;12.15;8.20;;;;;;;22.67;100.00;101459.81;5040924;28;20020;-63
2023/08/24 08:23:27;;;;;;;16.60;11.85;;;;;;;22.93;100.00;101460.75;5012981;28;20073;-64
2023/08/24 08:25:53;;;;;;;16.23;11.90;;;;;;;23.13;100.00;101449.97;5041095;28;20057;-64
2023/08/24 08:28:19;;;;;;;18.73;12.63;;;;;;;23.33;100.00;101452.53;5030180;28;20079;-63
2023/08/24 08:30:49;;;;;;;15.93;12.20;;;;;;;23.55;100.00;101453.81;5036495;28;20600;-64
2023/08/24 08:33:15;;;;;;;19.90;12.70;;;;;;;23.59;100.00;101448.84;5033011;28;20063;-64
2023/08/24 08:35:43;;;;;;;16.63;12.00;;;;;;;23.76;100.00;101457.16;5031183;28;20383;-65
2023/08/24 08:38:09;;;;;;;16.33;10.03;;;;;;;23.96;100.00;101462.38;5037229;28;20401;-64
2023/08/24 08:40:41;;;;;;;19.55;12.80;;;;;;;24.07;100.00;101462.47;5026547;28;20064;-63
2023/08/24 08:43:07;;;;;;;13.75;10.98;;;;;;;24.15;100.00;101452.50;5043986;28;20084;-65
2023/08/24 08:45:34;;;;;;;16.48;11.07;;;;;;;24.31;100.00;101437.72;5019540;28;20064;-64
2023/08/24 08:48:02;;;;;;;14.73;8.68;;;;;;;24.51;99.19;101443.69;5019283;28;20748;-64
2023/08/24 08:50:32;;;;;;;16.27;11.57;;;;;;;24.67;98.25;101428.84;5029539;28;20050;-65
2023/08/24 08:52:58;;;;;;;16.92;11.18;;;;;;;24.78;94.45;101422.72;5024731;28;20053;-64
2023/08/24 08:55:25;;;;;;;16.92;11.68;;;;;;;24.87;96.21;101415.16;5026637;28;20161;-64
2023/08/24 08:57:58;;;;;;;18.35;12.48;;;;;;;24.95;99.26;101414.03;5026320;28;20058;-64
2023/08/24 09:00:25;;;;;;;20.42;12.35;;;;;;;25.02;97.20;101407.53;5032416;28;20075;-65
2023/08/24 09:02:53;;;;;;;18.23;12.15;;;;;;;25.02;93.32;101394.09;5027377;28;20049;-63
2023/08/24 09:05:20;;;;;;;14.68;11.60;;;;;;;25.24;92.38;101375.63;5027911;28;20060;-64
2023/08/24 09:07:47;;;;;;;18.35;8.68;;;;;;;25.41;91.31;101370.41;5036503;28;20056;-63
2023/08/24 09:10:14;;;;;;;14.43;9.25;;;;;;;25.58;90.45;101361.66;5052519;28;20064;-64
2023/08/24 09:12:41;;;;;;;16.92;11.77;;;;;;;25.75;88.55;101359.09;5035580;28;20739;-64
2023/08/24 09:15:08;;;;;;;15.98;11.15;;;;;;;25.87;89.94;101354.50;5021222;28;20163;-65
2023/08/24 09:17:35;;;;;;;17.43;9.60;;;;;;;26.01;88.81;101358.63;5043746;28;20053;-64
2023/08/24 09:20:07;;;;;;;12.55;8.32;;;;;;;26.11;88.40;101357.19;5030715;28;20410;-64
2023/08/24 09:22:37;;;;;;;19.30;12.13;;;;;;;26.17;84.48;101353.59;5031194;28;20191;-64
2023/08/24 09:25:06;;;;;;;11.98;8.85;;;;;;;26.22;85.40;101342.91;5039421;28;20053;-63
2023/08/24 09:27:34;;;;;;;16.25;10.02;;;;;;;26.31;84.56;101329.94;5025369;28;20049;-64
2023/08/24 09:30:00;;;;;;;12.18;9.93;;;;;;;26.43;84.32;101323.44;5040938;28;20069;-64
2023/08/24 09:32:28;;;;;;;14.57;10.02;;;;;;;26.47;84.29;101315.72;5027202;28;20560;-64
2023/08/24 09:34:55;;;;;;;19.40;10.27;;;;;;;26.57;83.27;101312.38;5044436;28;20052;-65
2023/08/24 09:37:22;;;;;;;16.40;10.98;;;;;;;26.63;80.42;101303.38;5022827;28;20132;-64
2023/08/24 09:39:48;;;;;;;15.98;8.93;;;;;;;26.79;81.71;101301.75;5035100;28;20634;-65
2023/08/24 09:42:24;;;;;;;14.93;9.23;;;;;;;26.94;81.83;101290.44;5025273;28;20469;-64
2023/08/24 09:44:54;;;;;;;14.40;9.05;;;;;;;27.03;80.53;101275.50;5029886;28;20060;-64
2023/08/24 09:47:20;;;;;;;15.93;8.50;;;;;;;27.14;79.18;101282.69;5032774;28;20064;-65
2023/08/24 09:49:48;;;;;;;16.70;9.73;;;;;;;27.28;77.72;101296.66;5030274;28;20102;-64
2023/08/24 09:52:15;;;;;;;;;;;;;;;27.40;78.37;101302.78;5037861;28;20512;-64
2023/08/24 09:54:43;;;;;;;12.75;8.43;;;;;;;27.46;77.95;101313.59;5029719;28;19939;-65
2023/08/24 09:57:10;;;;;;;13.65;7.93;;;;;;;27.52;75.68;101307.22;5017515;28;20595;-65
2023/08/24 09:59:39;;;;;;;12.57;8.17;;;;;;;27.67;75.09;101318.22;5023391;28;20043;-64
2023/08/24 10:02:17;;;;;;;15.00;8.88;;;;;;;27.80;72.86;101317.06;5036476;28;20761;-64
2023/08/24 10:04:44;;;;;;;16.48;8.95;;;;;;;27.60;70.12;101325.69;5042965;28;20144;-64
2023/08/24 10:07:14;;;;;;;10.55;6.53;;;;;;;27.58;74.54;101325.94;5034725;28;20128;-64
2023/08/24 10:09:52;;;;;;;9.88;5.75;;;;;;;27.64;75.69;101318.72;5051109;28;20054;-65
2023/08/24 10:12:24;;;;;;;15.02;7.97;;;;;;;27.64;78.13;101315.19;5031655;28;20063;-64
2023/08/24 10:15:11;;;;;;;15.90;8.50;;;;;;;27.61;78.25;101319.22;5039686;28;20493;-64
2023/08/24 10:17:39;;;;;;;14.20;9.65;;;;;;;27.57;78.50;101328.84;5041300;28;20688;-64
2023/08/24 10:20:08;;;;;;;16.17;8.85;;;;;;;27.49;76.22;101338.19;5028597;28;20064;-63
2023/08/24 10:22:37;;;;;;;14.93;7.70;;;;;;;27.44;77.56;101348.88;5032424;28;20049;-64
2023/08/24 10:25:03;;;;;;;11.40;5.43;;;;;;;27.46;77.36;101341.34;5034260;28;20560;-64
2023/08/24 10:27:30;;;;;;;13.80;8.02;;;;;;;27.41;74.80;101331.31;5029291;28;20053;-65
2023/08/24 10:29:58;;;;;;;12.30;7.82;;;;;;;27.38;77.59;101320.22;5035341;28;20478;-64
2023/08/24 10:32:26;;;;;;;12.30;7.32;;;;;;;27.33;80.02;101320.97;5047170;28;20052;-64
2023/08/24 10:34:53;;;;;;;11.63;7.60;;;;;;;27.28;77.90;101315.50;5029392;28;20490;-64
2023/08/24 10:37:27;;;;;;;11.25;6.22;;;;;;;27.23;76.22;101301.94;5023515;28;20103;-64
2023/08/24 10:39:54;;;;;;;11.93;6.78;;;;;;;27.18;77.82;101294.59;5017526;28;20107;-64
2023/08/24 10:42:23;;;;;;;12.57;6.23;;;;;;;27.15;78.46;101295.09;5046205;28;20049;-65
2023/08/24 10:44:50;;;;;;;11.05;7.65;;;;;;;27.05;76.36;101284.19;5040883;28;20143;-64
2023/08/24 10:47:23;;;;;;;12.85;7.22;;;;;;;27.02;77.63;101290.03;5046710;28;20051;-64
2023/08/24 10:49:56;;;;;;;12.85;7.80;;;;;;;26.96;76.67;101286.44;5036139;28;20498;-64
2023/08/24 10:52:22;;;;;;;14.32;7.57;;;;;;;26.88;78.70;101278.78;5033953;28;20116;-64
2023/08/24 10:54:52;;;;;;;10.75;7.18;;;;;;;26.77;78.66;101279.66;5030700;28;20144;-64
2023/08/24 10:57:23;;;;;;;10.60;7.38;;;;;;;26.62;79.79;101270.28;5032511;28;20476;-64
2023/08/24 11:00:05;;;;;;;11.50;6.70;;;;;;;26.56;80.48;101273.06;5030596;28;20045;-63
2023/08/24 11:02:46;;;;;;;10.98;7.43;;;;;;;26.48;82.00;101276.16;5034144;28;20128;-64
2023/08/24 11:05:33;;;;;;;14.50;7.00;;;;;;;26.44;82.60;101267.75;5041505;28;20048;-63
2023/08/24 11:08:01;;;;;;;13.95;7.35;;;;;;;26.42;82.53;101270.72;5024329;28;20604;-63
2023/08/24 11:10:56;;;;;;;12.95;7.85;;;;;;;26.40;82.06;101275.53;5054107;28;20504;-64
2023/08/24 11:13:22;;;;;;;12.73;8.57;;;;;;;26.38;83.58;101264.19;5028263;28;20672;-64